sensor_id;sensor_type;location;lat;lon;timestamp;P1;durP1;ratioP1;P2;durP2;ratioP2
73678;SDS011;61978;52.742;16.962;2022-11-28T00:00:03;504.95;;;89.10;;
73678;SDS011;61978;52.742;16.962;2022-11-28T00:02:35;454.35;;;85.77;;
73678;SDS011;61978;52.742;16.962;2022-11-28T00:05:04;581.00;;;102.65;;
73678;SDS011;61978;52.742;16.962;2022-11-28T00:07:32;611.02;;;101.97;;
73678;SDS011;61978;52.742;16.962;2022-11-28T00:10:02;621.12;;;106.65;;
73678;SDS011;61978;52.742;16.962;2022-11-28T00:12:33;605.75;;;102.42;;
73678;SDS011;61978;52.742;16.962;2022-11-28T00:15:02;641.88;;;103.25;;
73678;SDS011;61978;52.742;16.962;2022-11-28T00:17:36;574.80;;;99.40;;
73678;SDS011;61978;52.742;16.962;2022-11-28T00:20:07;466.73;;;89.10;;
73678;SDS011;61978;52.742;16.962;2022-11-28T00:22:36;438.15;;;89.10;;
73678;SDS011;61978;52.742;16.962;2022-11-28T00:25:06;522.30;;;93.52;;
73678;SDS011;61978;52.742;16.962;2022-11-28T00:27:34;497.02;;;94.58;;
73678;SDS011;61978;52.742;16.962;2022-11-28T00:30:04;484.52;;;91.32;;
73678;SDS011;61978;52.742;16.962;2022-11-28T00:32:33;562.17;;;101.85;;
73678;SDS011;61978;52.742;16.962;2022-11-28T00:35:01;470.70;;;89.50;;
73678;SDS011;61978;52.742;16.962;2022-11-28T00:37:31;535.63;;;95.85;;
73678;SDS011;61978;52.742;16.962;2022-11-28T00:39:59;439.95;;;83.62;;
73678;SDS011;61978;52.742;16.962;2022-11-28T00:42:30;459.05;;;89.42;;
73678;SDS011;61978;52.742;16.962;2022-11-28T00:44:59;434.55;;;87.08;;
73678;SDS011;61978;52.742;16.962;2022-11-28T00:47:28;497.55;;;93.82;;
73678;SDS011;61978;52.742;16.962;2022-11-28T00:49:57;455.43;;;85.92;;
73678;SDS011;61978;52.742;16.962;2022-11-28T00:52:25;455.77;;;81.40;;
73678;SDS011;61978;52.742;16.962;2022-11-28T00:54:52;467.72;;;83.62;;
73678;SDS011;61978;52.742;16.962;2022-11-28T00:57:21;473.10;;;80.92;;
73678;SDS011;61978;52.742;16.962;2022-11-28T00:59:49;449.35;;;74.17;;
73678;SDS011;61978;52.742;16.962;2022-11-28T01:02:16;342.73;;;70.80;;
73678;SDS011;61978;52.742;16.962;2022-11-28T01:04:44;331.10;;;73.60;;
73678;SDS011;61978;52.742;16.962;2022-11-28T01:07:12;484.87;;;75.05;;
73678;SDS011;61978;52.742;16.962;2022-11-28T01:09:40;382.48;;;80.75;;
73678;SDS011;61978;52.742;16.962;2022-11-28T01:12:09;343.75;;;68.35;;
73678;SDS011;61978;52.742;16.962;2022-11-28T01:14:39;338.90;;;68.95;;
73678;SDS011;61978;52.742;16.962;2022-11-28T01:17:07;193.78;;;61.25;;
73678;SDS011;61978;52.742;16.962;2022-11-28T01:19:35;239.20;;;63.02;;
73678;SDS011;61978;52.742;16.962;2022-11-28T01:22:04;234.95;;;65.67;;
73678;SDS011;61978;52.742;16.962;2022-11-28T01:24:33;193.40;;;64.05;;
73678;SDS011;61978;52.742;16.962;2022-11-28T01:27:04;177.30;;;63.78;;
73678;SDS011;61978;52.742;16.962;2022-11-28T01:32:05;205.87;;;68.05;;
73678;SDS011;61978;52.742;16.962;2022-11-28T01:34:33;207.20;;;64.03;;
73678;SDS011;61978;52.742;16.962;2022-11-28T01:37:03;211.87;;;61.77;;
73678;SDS011;61978;52.742;16.962;2022-11-28T01:39:33;186.45;;;63.38;;
73678;SDS011;61978;52.742;16.962;2022-11-28T01:42:09;177.35;;;60.12;;
73678;SDS011;61978;52.742;16.962;2022-11-28T01:47:16;156.12;;;61.05;;
73678;SDS011;61978;52.742;16.962;2022-11-28T01:49:45;130.45;;;57.83;;
73678;SDS011;61978;52.742;16.962;2022-11-28T01:52:16;117.17;;;55.20;;
73678;SDS011;61978;52.742;16.962;2022-11-28T01:54:50;109.27;;;55.00;;
73678;SDS011;61978;52.742;16.962;2022-11-28T01:57:28;112.47;;;54.00;;
73678;SDS011;61978;52.742;16.962;2022-11-28T01:59:58;105.67;;;54.27;;
73678;SDS011;61978;52.742;16.962;2022-11-28T02:02:33;107.12;;;52.75;;
73678;SDS011;61978;52.742;16.962;2022-11-28T02:05:15;99.60;;;53.25;;
73678;SDS011;61978;52.742;16.962;2022-11-28T02:07:46;96.45;;;52.58;;
73678;SDS011;61978;52.742;16.962;2022-11-28T02:10:22;90.85;;;51.98;;
73678;SDS011;61978;52.742;16.962;2022-11-28T02:38:42;90.47;;;51.15;;
73678;SDS011;61978;52.742;16.962;2022-11-28T02:46:47;89.55;;;51.40;;
73678;SDS011;61978;52.742;16.962;2022-11-28T02:49:28;92.72;;;52.88;;
73678;SDS011;61978;52.742;16.962;2022-11-28T02:52:12;91.97;;;51.85;;
73678;SDS011;61978;52.742;16.962;2022-11-28T02:54:48;96.70;;;53.35;;
73678;SDS011;61978;52.742;16.962;2022-11-28T02:57:19;90.67;;;52.00;;
73678;SDS011;61978;52.742;16.962;2022-11-28T02:59:52;90.40;;;52.62;;
73678;SDS011;61978;52.742;16.962;2022-11-28T03:02:25;98.52;;;53.85;;
73678;SDS011;61978;52.742;16.962;2022-11-28T03:05:18;92.92;;;53.28;;
73678;SDS011;61978;52.742;16.962;2022-11-28T03:10:44;86.28;;;51.85;;
73678;SDS011;61978;52.742;16.962;2022-11-28T03:21:46;95.38;;;52.90;;
73678;SDS011;61978;52.742;16.962;2022-11-28T03:27:01;99.10;;;54.13;;
73678;SDS011;61978;52.742;16.962;2022-11-28T03:29:33;99.45;;;56.48;;
73678;SDS011;61978;52.742;16.962;2022-11-28T03:32:10;113.57;;;57.30;;
73678;SDS011;61978;52.742;16.962;2022-11-28T03:34:42;108.63;;;57.98;;
73678;SDS011;61978;52.742;16.962;2022-11-28T03:37:14;107.75;;;59.83;;
73678;SDS011;61978;52.742;16.962;2022-11-28T03:39:47;106.92;;;59.58;;
73678;SDS011;61978;52.742;16.962;2022-11-28T03:42:20;112.45;;;60.83;;
73678;SDS011;61978;52.742;16.962;2022-11-28T03:44:54;113.30;;;62.08;;
73678;SDS011;61978;52.742;16.962;2022-11-28T03:47:34;108.87;;;60.65;;
73678;SDS011;61978;52.742;16.962;2022-11-28T03:50:07;107.63;;;60.78;;
73678;SDS011;61978;52.742;16.962;2022-11-28T03:52:40;111.47;;;62.38;;
73678;SDS011;61978;52.742;16.962;2022-11-28T03:55:16;114.12;;;61.53;;
73678;SDS011;61978;52.742;16.962;2022-11-28T03:57:49;106.03;;;60.40;;
73678;SDS011;61978;52.742;16.962;2022-11-28T04:00:16;111.52;;;62.00;;
73678;SDS011;61978;52.742;16.962;2022-11-28T04:05:30;112.00;;;58.85;;
73678;SDS011;61978;52.742;16.962;2022-11-28T04:10:55;109.75;;;59.77;;
73678;SDS011;61978;52.742;16.962;2022-11-28T04:13:26;119.57;;;65.37;;
73678;SDS011;61978;52.742;16.962;2022-11-28T04:21:50;126.65;;;67.03;;
73678;SDS011;61978;52.742;16.962;2022-11-28T04:24:16;137.77;;;69.40;;
73678;SDS011;61978;52.742;16.962;2022-11-28T04:26:45;131.80;;;67.07;;
73678;SDS011;61978;52.742;16.962;2022-11-28T04:29:25;129.03;;;66.90;;
73678;SDS011;61978;52.742;16.962;2022-11-28T04:31:54;93.70;;;50.33;;
73678;SDS011;61978;52.742;16.962;2022-11-28T04:34:24;59.53;;;19.60;;
73678;SDS011;61978;52.742;16.962;2022-11-28T04:36:55;122.42;;;29.48;;
73678;SDS011;61978;52.742;16.962;2022-11-28T04:39:25;221.32;;;47.03;;
73678;SDS011;61978;52.742;16.962;2022-11-28T04:42:00;206.05;;;82.62;;
73678;SDS011;61978;52.742;16.962;2022-11-28T04:44:28;110.20;;;31.62;;
73678;SDS011;61978;52.742;16.962;2022-11-28T04:46:57;131.50;;;36.70;;
73678;SDS011;61978;52.742;16.962;2022-11-28T04:49:24;135.80;;;40.08;;
73678;SDS011;61978;52.742;16.962;2022-11-28T04:51:56;115.22;;;38.85;;
73678;SDS011;61978;52.742;16.962;2022-11-28T04:54:40;91.47;;;35.75;;
73678;SDS011;61978;52.742;16.962;2022-11-28T04:57:15;80.42;;;31.73;;
73678;SDS011;61978;52.742;16.962;2022-11-28T04:59:47;74.67;;;32.75;;
73678;SDS011;61978;52.742;16.962;2022-11-28T05:02:16;71.25;;;31.15;;
73678;SDS011;61978;52.742;16.962;2022-11-28T05:04:48;80.35;;;36.05;;
73678;SDS011;61978;52.742;16.962;2022-11-28T05:07:17;122.00;;;61.85;;
73678;SDS011;61978;52.742;16.962;2022-11-28T05:09:44;132.93;;;63.30;;
73678;SDS011;61978;52.742;16.962;2022-11-28T05:12:14;148.40;;;67.67;;
73678;SDS011;61978;52.742;16.962;2022-11-28T05:14:41;154.72;;;71.15;;
73678;SDS011;61978;52.742;16.962;2022-11-28T05:17:11;140.37;;;61.60;;
73678;SDS011;61978;52.742;16.962;2022-11-28T05:19:38;166.65;;;74.03;;
73678;SDS011;61978;52.742;16.962;2022-11-28T05:22:06;135.78;;;61.50;;
73678;SDS011;61978;52.742;16.962;2022-11-28T05:24:37;168.78;;;73.05;;
73678;SDS011;61978;52.742;16.962;2022-11-28T05:27:04;153.93;;;71.50;;
73678;SDS011;61978;52.742;16.962;2022-11-28T05:29:32;168.45;;;75.03;;
73678;SDS011;61978;52.742;16.962;2022-11-28T05:31:59;172.05;;;79.53;;
73678;SDS011;61978;52.742;16.962;2022-11-28T05:34:26;159.50;;;76.33;;
73678;SDS011;61978;52.742;16.962;2022-11-28T05:36:54;175.30;;;82.90;;
73678;SDS011;61978;52.742;16.962;2022-11-28T05:39:24;169.30;;;79.27;;
73678;SDS011;61978;52.742;16.962;2022-11-28T05:41:53;176.97;;;80.92;;
73678;SDS011;61978;52.742;16.962;2022-11-28T05:44:20;172.78;;;79.15;;
73678;SDS011;61978;52.742;16.962;2022-11-28T05:46:51;173.17;;;78.75;;
73678;SDS011;61978;52.742;16.962;2022-11-28T05:49:20;172.43;;;78.55;;
73678;SDS011;61978;52.742;16.962;2022-11-28T05:51:51;121.15;;;41.88;;
73678;SDS011;61978;52.742;16.962;2022-11-28T05:54:19;99.77;;;36.35;;
73678;SDS011;61978;52.742;16.962;2022-11-28T05:56:47;88.62;;;35.92;;
73678;SDS011;61978;52.742;16.962;2022-11-28T05:59:15;115.35;;;58.28;;
73678;SDS011;61978;52.742;16.962;2022-11-28T06:01:44;139.45;;;67.00;;
73678;SDS011;61978;52.742;16.962;2022-11-28T06:04:10;129.55;;;67.30;;
73678;SDS011;61978;52.742;16.962;2022-11-28T06:06:37;131.78;;;66.00;;
73678;SDS011;61978;52.742;16.962;2022-11-28T06:09:07;140.73;;;66.02;;
73678;SDS011;61978;52.742;16.962;2022-11-28T06:11:35;139.55;;;66.10;;
73678;SDS011;61978;52.742;16.962;2022-11-28T06:14:06;138.05;;;66.40;;
73678;SDS011;61978;52.742;16.962;2022-11-28T06:16:39;132.43;;;64.15;;
73678;SDS011;61978;52.742;16.962;2022-11-28T06:19:12;137.68;;;65.97;;
73678;SDS011;61978;52.742;16.962;2022-11-28T06:21:40;136.12;;;67.92;;
73678;SDS011;61978;52.742;16.962;2022-11-28T06:24:09;132.87;;;63.23;;
73678;SDS011;61978;52.742;16.962;2022-11-28T06:26:41;130.87;;;65.83;;
73678;SDS011;61978;52.742;16.962;2022-11-28T06:29:12;118.35;;;59.77;;
73678;SDS011;61978;52.742;16.962;2022-11-28T06:31:41;119.95;;;59.40;;
73678;SDS011;61978;52.742;16.962;2022-11-28T06:34:15;112.85;;;57.98;;
73678;SDS011;61978;52.742;16.962;2022-11-28T06:36:42;117.08;;;60.55;;
73678;SDS011;61978;52.742;16.962;2022-11-28T06:39:11;110.35;;;55.95;;
73678;SDS011;61978;52.742;16.962;2022-11-28T06:41:41;104.12;;;54.80;;
73678;SDS011;61978;52.742;16.962;2022-11-28T06:44:12;105.15;;;51.92;;
73678;SDS011;61978;52.742;16.962;2022-11-28T06:46:41;97.08;;;48.98;;
73678;SDS011;61978;52.742;16.962;2022-11-28T06:49:10;99.50;;;50.00;;
73678;SDS011;61978;52.742;16.962;2022-11-28T06:51:39;104.95;;;52.27;;
73678;SDS011;61978;52.742;16.962;2022-11-28T06:54:08;98.35;;;50.05;;
73678;SDS011;61978;52.742;16.962;2022-11-28T06:56:38;102.25;;;52.00;;
73678;SDS011;61978;52.742;16.962;2022-11-28T06:59:09;100.33;;;49.45;;
73678;SDS011;61978;52.742;16.962;2022-11-28T07:01:38;96.70;;;49.95;;
73678;SDS011;61978;52.742;16.962;2022-11-28T07:04:08;97.25;;;50.78;;
73678;SDS011;61978;52.742;16.962;2022-11-28T07:06:36;101.75;;;50.00;;
73678;SDS011;61978;52.742;16.962;2022-11-28T07:09:03;110.63;;;53.83;;
73678;SDS011;61978;52.742;16.962;2022-11-28T07:11:30;108.45;;;52.73;;
73678;SDS011;61978;52.742;16.962;2022-11-28T07:13:59;100.62;;;51.23;;
73678;SDS011;61978;52.742;16.962;2022-11-28T07:16:29;100.82;;;53.38;;
73678;SDS011;61978;52.742;16.962;2022-11-28T07:18:59;122.67;;;64.10;;
73678;SDS011;61978;52.742;16.962;2022-11-28T07:21:28;122.85;;;63.02;;
73678;SDS011;61978;52.742;16.962;2022-11-28T07:23:56;155.82;;;83.87;;
73678;SDS011;61978;52.742;16.962;2022-11-28T07:26:24;158.82;;;82.57;;
73678;SDS011;61978;52.742;16.962;2022-11-28T07:28:53;157.85;;;83.45;;
73678;SDS011;61978;52.742;16.962;2022-11-28T07:31:24;153.93;;;80.00;;
73678;SDS011;61978;52.742;16.962;2022-11-28T07:33:54;136.00;;;70.78;;
73678;SDS011;61978;52.742;16.962;2022-11-28T07:36:24;125.72;;;62.75;;
73678;SDS011;61978;52.742;16.962;2022-11-28T07:38:54;107.92;;;57.95;;
73678;SDS011;61978;52.742;16.962;2022-11-28T07:41:27;104.43;;;58.90;;
73678;SDS011;61978;52.742;16.962;2022-11-28T07:43:58;104.58;;;58.38;;
73678;SDS011;61978;52.742;16.962;2022-11-28T07:46:28;112.22;;;60.50;;
73678;SDS011;61978;52.742;16.962;2022-11-28T07:48:57;118.70;;;59.88;;
73678;SDS011;61978;52.742;16.962;2022-11-28T07:51:27;114.67;;;59.45;;
73678;SDS011;61978;52.742;16.962;2022-11-28T07:53:57;107.20;;;56.28;;
73678;SDS011;61978;52.742;16.962;2022-11-28T07:56:30;102.12;;;56.73;;
73678;SDS011;61978;52.742;16.962;2022-11-28T07:58:57;98.50;;;54.58;;
73678;SDS011;61978;52.742;16.962;2022-11-28T08:01:29;83.50;;;49.10;;
73678;SDS011;61978;52.742;16.962;2022-11-28T08:04:00;72.32;;;43.78;;
73678;SDS011;61978;52.742;16.962;2022-11-28T08:06:58;72.53;;;45.45;;
73678;SDS011;61978;52.742;16.962;2022-11-28T08:09:29;61.48;;;38.80;;
73678;SDS011;61978;52.742;16.962;2022-11-28T08:11:58;55.05;;;36.50;;
73678;SDS011;61978;52.742;16.962;2022-11-28T08:14:26;57.20;;;37.23;;
73678;SDS011;61978;52.742;16.962;2022-11-28T08:16:54;54.20;;;35.90;;
73678;SDS011;61978;52.742;16.962;2022-11-28T08:19:21;51.23;;;35.78;;
73678;SDS011;61978;52.742;16.962;2022-11-28T08:21:49;51.65;;;33.98;;
73678;SDS011;61978;52.742;16.962;2022-11-28T08:24:16;48.52;;;33.13;;
73678;SDS011;61978;52.742;16.962;2022-11-28T08:26:43;48.05;;;33.25;;
73678;SDS011;61978;52.742;16.962;2022-11-28T08:29:12;52.67;;;34.03;;
73678;SDS011;61978;52.742;16.962;2022-11-28T08:31:43;44.90;;;32.17;;
73678;SDS011;61978;52.742;16.962;2022-11-28T08:34:10;47.05;;;31.50;;
73678;SDS011;61978;52.742;16.962;2022-11-28T08:36:38;48.28;;;33.78;;
73678;SDS011;61978;52.742;16.962;2022-11-28T08:39:06;41.92;;;31.07;;
73678;SDS011;61978;52.742;16.962;2022-11-28T08:41:34;47.67;;;30.25;;
73678;SDS011;61978;52.742;16.962;2022-11-28T08:44:02;40.40;;;29.27;;
73678;SDS011;61978;52.742;16.962;2022-11-28T08:46:30;39.58;;;29.40;;
73678;SDS011;61978;52.742;16.962;2022-11-28T08:48:59;40.28;;;28.80;;
73678;SDS011;61978;52.742;16.962;2022-11-28T08:51:28;41.70;;;30.08;;
73678;SDS011;61978;52.742;16.962;2022-11-28T08:53:59;38.88;;;29.27;;
73678;SDS011;61978;52.742;16.962;2022-11-28T08:56:28;41.85;;;29.05;;
73678;SDS011;61978;52.742;16.962;2022-11-28T08:58:55;42.05;;;28.98;;
73678;SDS011;61978;52.742;16.962;2022-11-28T09:01:24;39.58;;;29.18;;
73678;SDS011;61978;52.742;16.962;2022-11-28T09:03:54;39.20;;;29.30;;
73678;SDS011;61978;52.742;16.962;2022-11-28T09:06:22;39.58;;;28.35;;
73678;SDS011;61978;52.742;16.962;2022-11-28T09:08:52;40.05;;;29.23;;
73678;SDS011;61978;52.742;16.962;2022-11-28T09:11:19;36.63;;;27.17;;
73678;SDS011;61978;52.742;16.962;2022-11-28T09:13:51;38.23;;;27.10;;
73678;SDS011;61978;52.742;16.962;2022-11-28T09:16:19;33.83;;;25.92;;
73678;SDS011;61978;52.742;16.962;2022-11-28T09:18:50;34.10;;;24.75;;
73678;SDS011;61978;52.742;16.962;2022-11-28T09:21:17;36.73;;;25.02;;
73678;SDS011;61978;52.742;16.962;2022-11-28T09:23:47;34.85;;;24.50;;
73678;SDS011;61978;52.742;16.962;2022-11-28T09:26:17;34.38;;;23.57;;
73678;SDS011;61978;52.742;16.962;2022-11-28T09:28:48;35.98;;;25.65;;
73678;SDS011;61978;52.742;16.962;2022-11-28T09:31:16;34.48;;;26.17;;
73678;SDS011;61978;52.742;16.962;2022-11-28T09:33:47;36.60;;;24.63;;
73678;SDS011;61978;52.742;16.962;2022-11-28T09:36:15;31.05;;;22.73;;
73678;SDS011;61978;52.742;16.962;2022-11-28T09:38:44;33.25;;;23.98;;
73678;SDS011;61978;52.742;16.962;2022-11-28T09:44:29;30.68;;;23.10;;
73678;SDS011;61978;52.742;16.962;2022-11-28T09:47:07;33.75;;;23.22;;
73678;SDS011;61978;52.742;16.962;2022-11-28T09:49:43;28.92;;;21.30;;
73678;SDS011;61978;52.742;16.962;2022-11-28T09:52:22;31.80;;;22.90;;
73678;SDS011;61978;52.742;16.962;2022-11-28T09:57:39;35.30;;;24.35;;
73678;SDS011;61978;52.742;16.962;2022-11-28T10:00:27;34.45;;;23.77;;
73678;SDS011;61978;52.742;16.962;2022-11-28T10:08:32;33.92;;;24.52;;
73678;SDS011;61978;52.742;16.962;2022-11-28T10:14:00;38.40;;;25.95;;
73678;SDS011;61978;52.742;16.962;2022-11-28T10:19:38;36.90;;;23.85;;
73678;SDS011;61978;52.742;16.962;2022-11-28T10:22:17;35.03;;;25.48;;
73678;SDS011;61978;52.742;16.962;2022-11-28T10:24:47;37.28;;;26.05;;
73678;SDS011;61978;52.742;16.962;2022-11-28T10:27:15;39.92;;;25.88;;
73678;SDS011;61978;52.742;16.962;2022-11-28T10:29:47;37.98;;;26.52;;
73678;SDS011;61978;52.742;16.962;2022-11-28T10:32:24;40.83;;;27.27;;
73678;SDS011;61978;52.742;16.962;2022-11-28T10:35:00;36.08;;;24.18;;
73678;SDS011;61978;52.742;16.962;2022-11-28T10:37:34;35.92;;;24.95;;
73678;SDS011;61978;52.742;16.962;2022-11-28T10:42:52;35.45;;;25.77;;
73678;SDS011;61978;52.742;16.962;2022-11-28T10:50:37;35.35;;;25.35;;
73678;SDS011;61978;52.742;16.962;2022-11-28T10:55:46;34.60;;;24.80;;
73678;SDS011;61978;52.742;16.962;2022-11-28T11:00:59;35.25;;;25.90;;
73678;SDS011;61978;52.742;16.962;2022-11-28T11:03:28;32.45;;;24.00;;
73678;SDS011;61978;52.742;16.962;2022-11-28T11:05:58;36.85;;;24.52;;
73678;SDS011;61978;52.742;16.962;2022-11-28T11:08:26;34.05;;;25.17;;
73678;SDS011;61978;52.742;16.962;2022-11-28T11:13:28;35.23;;;25.25;;
73678;SDS011;61978;52.742;16.962;2022-11-28T11:15:58;35.65;;;24.65;;
73678;SDS011;61978;52.742;16.962;2022-11-28T11:18:32;37.53;;;24.92;;
73678;SDS011;61978;52.742;16.962;2022-11-28T11:23:36;35.15;;;24.55;;
73678;SDS011;61978;52.742;16.962;2022-11-28T11:26:04;34.78;;;22.82;;
73678;SDS011;61978;52.742;16.962;2022-11-28T11:28:46;34.65;;;25.45;;
73678;SDS011;61978;52.742;16.962;2022-11-28T11:31:23;36.50;;;25.08;;
73678;SDS011;61978;52.742;16.962;2022-11-28T11:34:02;34.00;;;24.80;;
73678;SDS011;61978;52.742;16.962;2022-11-28T11:36:33;41.92;;;26.90;;
73678;SDS011;61978;52.742;16.962;2022-11-28T11:41:38;33.50;;;25.15;;
73678;SDS011;61978;52.742;16.962;2022-11-28T11:44:31;34.65;;;25.12;;
73678;SDS011;61978;52.742;16.962;2022-11-28T11:47:06;35.63;;;25.57;;
73678;SDS011;61978;52.742;16.962;2022-11-28T11:57:36;35.70;;;25.05;;
73678;SDS011;61978;52.742;16.962;2022-11-28T12:00:14;34.90;;;25.97;;
73678;SDS011;61978;52.742;16.962;2022-11-28T12:03:02;34.70;;;25.43;;
73678;SDS011;61978;52.742;16.962;2022-11-28T12:05:29;36.85;;;26.87;;
73678;SDS011;61978;52.742;16.962;2022-11-28T12:08:11;35.73;;;27.17;;
73678;SDS011;61978;52.742;16.962;2022-11-28T12:10:45;39.08;;;26.90;;
73678;SDS011;61978;52.742;16.962;2022-11-28T12:13:22;39.65;;;26.90;;
73678;SDS011;61978;52.742;16.962;2022-11-28T12:15:57;36.73;;;26.70;;
73678;SDS011;61978;52.742;16.962;2022-11-28T12:21:19;36.90;;;25.48;;
73678;SDS011;61978;52.742;16.962;2022-11-28T12:26:38;36.13;;;26.30;;
73678;SDS011;61978;52.742;16.962;2022-11-28T12:37:51;38.20;;;27.93;;
73678;SDS011;61978;52.742;16.962;2022-11-28T12:43:13;39.75;;;27.75;;
73678;SDS011;61978;52.742;16.962;2022-11-28T12:45:51;41.90;;;29.18;;
73678;SDS011;61978;52.742;16.962;2022-11-28T12:48:39;38.28;;;27.10;;
73678;SDS011;61978;52.742;16.962;2022-11-28T12:51:21;39.20;;;28.25;;
73678;SDS011;61978;52.742;16.962;2022-11-28T12:54:17;41.23;;;28.23;;
73678;SDS011;61978;52.742;16.962;2022-11-28T12:59:48;38.98;;;28.40;;
73678;SDS011;61978;52.742;16.962;2022-11-28T15:24:29;43.50;;;27.53;;
73678;SDS011;61978;52.742;16.962;2022-11-28T15:29:38;47.53;;;29.12;;
73678;SDS011;61978;52.742;16.962;2022-11-28T15:32:05;46.20;;;29.07;;
73678;SDS011;61978;52.742;16.962;2022-11-28T15:34:36;45.03;;;31.12;;
73678;SDS011;61978;52.742;16.962;2022-11-28T15:37:14;45.45;;;29.20;;
73678;SDS011;61978;52.742;16.962;2022-11-28T15:39:49;42.70;;;28.67;;
73678;SDS011;61978;52.742;16.962;2022-11-28T15:44:57;45.73;;;29.42;;
73678;SDS011;61978;52.742;16.962;2022-11-28T15:47:30;45.78;;;28.65;;
73678;SDS011;61978;52.742;16.962;2022-11-28T15:52:37;45.12;;;29.35;;
73678;SDS011;61978;52.742;16.962;2022-11-28T15:55:14;44.65;;;30.72;;
73678;SDS011;61978;52.742;16.962;2022-11-28T15:57:43;48.20;;;31.52;;
73678;SDS011;61978;52.742;16.962;2022-11-28T16:00:16;46.53;;;31.87;;
73678;SDS011;61978;52.742;16.962;2022-11-28T16:02:48;45.48;;;30.60;;
73678;SDS011;61978;52.742;16.962;2022-11-28T16:05:16;48.40;;;31.75;;
73678;SDS011;61978;52.742;16.962;2022-11-28T16:07:49;49.35;;;32.55;;
73678;SDS011;61978;52.742;16.962;2022-11-28T16:10:36;48.17;;;33.18;;
73678;SDS011;61978;52.742;16.962;2022-11-28T16:13:10;52.43;;;32.80;;
73678;SDS011;61978;52.742;16.962;2022-11-28T16:15:44;50.20;;;31.65;;
73678;SDS011;61978;52.742;16.962;2022-11-28T16:18:14;49.53;;;32.58;;
73678;SDS011;61978;52.742;16.962;2022-11-28T16:20:42;51.50;;;31.68;;
73678;SDS011;61978;52.742;16.962;2022-11-28T16:23:13;50.92;;;33.23;;
73678;SDS011;61978;52.742;16.962;2022-11-28T16:28:36;45.10;;;30.25;;
73678;SDS011;61978;52.742;16.962;2022-11-28T16:31:12;46.30;;;31.02;;
73678;SDS011;61978;52.742;16.962;2022-11-28T16:33:41;48.95;;;32.10;;
73678;SDS011;61978;52.742;16.962;2022-11-28T16:41:38;48.33;;;35.20;;
73678;SDS011;61978;52.742;16.962;2022-11-28T16:44:11;63.10;;;44.48;;
73678;SDS011;61978;52.742;16.962;2022-11-28T16:46:51;74.15;;;52.95;;
73678;SDS011;61978;52.742;16.962;2022-11-28T16:54:52;54.18;;;37.90;;
73678;SDS011;61978;52.742;16.962;2022-11-28T16:57:43;50.95;;;32.50;;
73678;SDS011;61978;52.742;16.962;2022-11-28T17:00:12;56.08;;;37.13;;
73678;SDS011;61978;52.742;16.962;2022-11-28T17:02:43;53.80;;;37.75;;
73678;SDS011;61978;52.742;16.962;2022-11-28T17:05:09;57.20;;;38.70;;
73678;SDS011;61978;52.742;16.962;2022-11-28T17:10:22;58.28;;;37.13;;
73678;SDS011;61978;52.742;16.962;2022-11-28T17:12:52;50.55;;;36.38;;
73678;SDS011;61978;52.742;16.962;2022-11-28T17:15:21;46.80;;;32.58;;
73678;SDS011;61978;52.742;16.962;2022-11-28T17:17:48;50.83;;;32.78;;
73678;SDS011;61978;52.742;16.962;2022-11-28T17:20:17;45.70;;;33.02;;
73678;SDS011;61978;52.742;16.962;2022-11-28T17:22:44;49.03;;;33.58;;
73678;SDS011;61978;52.742;16.962;2022-11-28T17:25:13;47.55;;;33.42;;
73678;SDS011;61978;52.742;16.962;2022-11-28T17:27:43;51.40;;;33.48;;
73678;SDS011;61978;52.742;16.962;2022-11-28T17:30:14;50.67;;;33.35;;
73678;SDS011;61978;52.742;16.962;2022-11-28T17:32:43;50.05;;;34.15;;
73678;SDS011;61978;52.742;16.962;2022-11-28T17:35:17;73.20;;;43.25;;
73678;SDS011;61978;52.742;16.962;2022-11-28T17:37:48;57.50;;;38.08;;
73678;SDS011;61978;52.742;16.962;2022-11-28T17:40:15;50.92;;;35.15;;
73678;SDS011;61978;52.742;16.962;2022-11-28T17:42:57;46.83;;;33.88;;
73678;SDS011;61978;52.742;16.962;2022-11-28T17:45:32;47.90;;;33.60;;
73678;SDS011;61978;52.742;16.962;2022-11-28T17:48:57;50.40;;;33.05;;
73678;SDS011;61978;52.742;16.962;2022-11-28T17:51:24;45.70;;;31.85;;
73678;SDS011;61978;52.742;16.962;2022-11-28T17:53:51;48.28;;;32.58;;
73678;SDS011;61978;52.742;16.962;2022-11-28T17:56:18;44.95;;;32.95;;
73678;SDS011;61978;52.742;16.962;2022-11-28T17:58:44;49.18;;;33.50;;
73678;SDS011;61978;52.742;16.962;2022-11-28T18:01:13;54.63;;;34.03;;
73678;SDS011;61978;52.742;16.962;2022-11-28T18:03:41;46.40;;;34.90;;
73678;SDS011;61978;52.742;16.962;2022-11-28T18:06:13;49.58;;;34.63;;
73678;SDS011;61978;52.742;16.962;2022-11-28T18:08:57;49.83;;;32.45;;
73678;SDS011;61978;52.742;16.962;2022-11-28T18:11:33;49.20;;;34.03;;
73678;SDS011;61978;52.742;16.962;2022-11-28T18:14:00;46.18;;;32.67;;
73678;SDS011;61978;52.742;16.962;2022-11-28T18:16:27;48.10;;;34.35;;
73678;SDS011;61978;52.742;16.962;2022-11-28T18:18:55;48.42;;;33.92;;
73678;SDS011;61978;52.742;16.962;2022-11-28T18:21:23;49.70;;;35.25;;
73678;SDS011;61978;52.742;16.962;2022-11-28T18:23:51;48.60;;;33.02;;
73678;SDS011;61978;52.742;16.962;2022-11-28T18:26:21;45.92;;;32.78;;
73678;SDS011;61978;52.742;16.962;2022-11-28T18:28:49;46.18;;;29.42;;
73678;SDS011;61978;52.742;16.962;2022-11-28T18:31:24;49.70;;;33.63;;
73678;SDS011;61978;52.742;16.962;2022-11-28T18:33:52;46.33;;;34.08;;
73678;SDS011;61978;52.742;16.962;2022-11-28T18:36:22;52.35;;;34.65;;
73678;SDS011;61978;52.742;16.962;2022-11-28T18:38:53;48.87;;;34.48;;
73678;SDS011;61978;52.742;16.962;2022-11-28T18:41:23;49.35;;;33.92;;
73678;SDS011;61978;52.742;16.962;2022-11-28T18:43:56;45.38;;;31.33;;
73678;SDS011;61978;52.742;16.962;2022-11-28T18:46:26;46.37;;;33.53;;
73678;SDS011;61978;52.742;16.962;2022-11-28T18:48:53;48.95;;;35.65;;
73678;SDS011;61978;52.742;16.962;2022-11-28T18:51:23;49.00;;;34.85;;
73678;SDS011;61978;52.742;16.962;2022-11-28T18:53:50;48.63;;;35.03;;
73678;SDS011;61978;52.742;16.962;2022-11-28T18:56:18;52.05;;;34.90;;
73678;SDS011;61978;52.742;16.962;2022-11-28T18:58:48;50.75;;;34.60;;
73678;SDS011;61978;52.742;16.962;2022-11-28T19:01:18;52.55;;;35.10;;
73678;SDS011;61978;52.742;16.962;2022-11-28T19:03:48;18.60;;;9.45;;
73678;SDS011;61978;52.742;16.962;2022-11-28T19:06:17;93.42;;;47.10;;
73678;SDS011;61978;52.742;16.962;2022-11-28T19:08:44;63.45;;;38.73;;
73678;SDS011;61978;52.742;16.962;2022-11-28T19:11:12;58.10;;;38.40;;
73678;SDS011;61978;52.742;16.962;2022-11-28T19:13:41;52.25;;;34.00;;
73678;SDS011;61978;52.742;16.962;2022-11-28T19:16:14;59.80;;;35.00;;
73678;SDS011;61978;52.742;16.962;2022-11-28T19:18:47;80.35;;;28.45;;
73678;SDS011;61978;52.742;16.962;2022-11-28T19:21:15;107.65;;;56.85;;